Time;durP1;ratioP1;P1;durP2;ratioP2;P2;SDS_P1;SDS_P2;PMS_P1;PMS_P2;Temp;Humidity;BMP_temperature;BMP_pressure;BME280_temperature;BME280_humidity;BME280_pressure;Samples;Min_cycle;Max_cycle;Signal;HPM_P1;HPM_P2
2021/12/16 00:02:03;;;;;;;16.08;13.52;;;16.60;99.90;;;;;;1033141;28;20409;-68
2021/12/16 00:05:31;;;;;;;14.25;11.10;;;16.60;99.90;;;;;;1034755;28;20088;-67
2021/12/16 00:07:22;;;;;;;16.10;13.45;;;16.60;99.90;;;;;;1034520;28;20044;-67
2021/12/16 00:08:14;;;;;;;18.67;15.63;;;16.60;99.90;;;;;;1034426;28;20022;-67
2021/12/16 00:08:55;;;;;;;15.65;13.65;;;16.50;99.90;;;;;;1034106;28;20022;-68
2021/12/16 00:10:38;;;;;;;16.58;13.20;;;16.50;99.90;;;;;;1029806;28;20168;-68
2021/12/16 00:11:35;;;;;;;18.95;15.30;;;16.50;99.90;;;;;;1029763;28;20464;-65
2021/12/16 00:29:18;;;;;;;13.40;12.05;;;16.50;99.90;;;;;;1032054;28;20087;-68
2021/12/16 00:32:42;;;;;;;14.60;12.65;;;16.40;99.90;;;;;;1032112;28;20033;-68
2021/12/16 00:33:58;;;;;;;14.32;11.50;;;16.40;99.90;;;;;;1035041;28;20026;-66
2021/12/16 00:34:30;;;;;;;10.98;9.38;;;16.40;99.90;;;;;;1030744;28;20394;-67
2021/12/16 00:35:02;;;;;;;11.68;10.48;;;16.40;99.90;;;;;;1030186;28;20042;-66
2021/12/16 00:35:32;;;;;;;11.27;9.63;;;16.40;99.90;;;;;;1034776;28;20021;-66
2021/12/16 00:36:05;;;;;;;14.40;12.27;;;16.40;99.90;;;;;;1034221;28;20021;-67
2021/12/16 00:36:42;;;;;;;14.00;11.55;;;16.40;99.90;;;;;;1034456;28;20079;-67
2021/12/16 00:37:13;;;;;;;16.33;11.55;;;16.40;99.90;;;;;;1034285;28;20103;-68
2021/12/16 00:37:43;;;;;;;13.73;12.30;;;16.40;99.90;;;;;;1034890;28;20089;-67
2021/12/16 00:38:15;;;;;;;17.20;13.03;;;16.40;99.90;;;;;;1034562;28;20100;-67
2021/12/16 00:38:45;;;;;;;13.75;12.35;;;16.40;99.90;;;;;;1035189;28;20018;-66
2021/12/16 00:39:30;;;;;;;11.07;9.83;;;16.40;99.90;;;;;;1033915;28;20136;-66
2021/12/16 00:40:03;;;;;;;13.35;11.88;;;16.40;99.90;;;;;;1032837;28;20018;-68
2021/12/16 00:40:33;;;;;;;14.00;11.15;;;16.40;99.90;;;;;;1032576;28;20038;-67
2021/12/16 00:41:04;;;;;;;12.93;11.63;;;16.40;99.90;;;;;;1033729;28;20021;-67
2021/12/16 00:41:37;;;;;;;14.50;11.70;;;16.40;99.90;;;;;;1034615;28;20029;-66
2021/12/16 00:42:17;;;;;;;14.32;10.95;;;16.40;99.90;;;;;;1034339;28;20022;-66
2021/12/16 00:42:52;;;;;;;13.68;10.93;;;16.40;99.90;;;;;;1035114;28;20024;-66
2021/12/16 00:43:33;;;;;;;14.52;12.35;;;16.40;99.90;;;;;;1033506;28;20022;-66
2021/12/16 00:44:59;;;;;;;13.50;10.45;;;16.40;99.90;;;;;;1031445;28;20021;-68
2021/12/16 00:47:34;;;;;;;13.73;11.32;;;16.40;99.90;;;;;;1034469;28;20034;-67
2021/12/16 00:49:31;;;;;;;13.68;12.23;;;16.40;99.90;;;;;;1034531;28;20477;-68
2021/12/16 00:54:10;;;;;;;11.32;9.75;;;16.40;99.90;;;;;;1035033;28;20025;-68
2021/12/16 00:54:46;;;;;;;9.68;8.68;;;16.40;99.90;;;;;;1034115;28;20057;-68
2021/12/16 00:55:46;;;;;;;8.93;8.00;;;16.40;99.90;;;;;;1034239;28;20147;-67
2021/12/16 00:56:17;;;;;;;11.25;9.45;;;16.40;99.90;;;;;;1033361;28;20033;-68
2021/12/16 00:56:58;;;;;;;13.00;9.50;;;16.40;99.90;;;;;;1034661;28;20025;-67
2021/12/16 00:57:29;;;;;;;12.52;10.20;;;16.40;99.90;;;;;;1034064;28;20759;-67
2021/12/16 00:58:00;;;;;;;9.93;8.93;;;16.40;99.90;;;;;;1034552;28;20025;-66
2021/12/16 00:58:39;;;;;;;13.67;12.10;;;16.40;99.90;;;;;;1033784;28;20034;-67
2021/12/16 00:59:13;;;;;;;14.35;11.23;;;16.40;99.90;;;;;;1033496;28;20026;-66
2021/12/16 00:59:47;;;;;;;12.50;11.23;;;16.40;99.90;;;;;;1032535;28;20072;-67
2021/12/16 01:00:18;;;;;;;10.95;9.55;;;16.40;99.90;;;;;;1033811;28;20046;-67
2021/12/16 01:00:58;;;;;;;10.20;9.20;;;16.40;99.90;;;;;;1034881;28;20018;-67
2021/12/16 01:01:40;;;;;;;12.85;11.55;;;16.40;99.90;;;;;;1034625;28;20029;-67
2021/12/16 01:02:55;;;;;;;10.60;9.50;;;16.40;99.90;;;;;;1034252;28;20405;-67
2021/12/16 01:10:11;;;;;;;14.20;11.88;;;16.40;99.90;;;;;;1029983;28;20544;-65
2021/12/16 01:34:10;;;;;;;11.13;9.77;;;16.50;99.90;;;;;;1033937;28;20366;-66
2021/12/16 01:34:59;;;;;;;14.13;11.63;;;16.50;99.90;;;;;;1032122;28;20044;-67
2021/12/16 01:36:30;;;;;;;12.37;10.90;;;16.50;99.90;;;;;;1029897;28;20061;-67
2021/12/16 01:37:49;;;;;;;10.32;9.23;;;16.40;99.90;;;;;;1029750;28;20031;-66
2021/12/16 01:45:30;;;;;;;17.83;14.07;;;16.50;99.90;;;;;;1028421;28;20190;-68
2021/12/16 01:46:26;;;;;;;11.25;10.05;;;16.40;99.90;;;;;;1031674;28;20689;-67
2021/12/16 01:50:06;;;;;;;12.77;10.40;;;16.40;99.90;;;;;;1031514;28;20112;-67
2021/12/16 01:50:42;;;;;;;13.00;11.15;;;16.40;99.90;;;;;;1032876;28;20034;-67
2021/12/16 01:51:21;;;;;;;12.38;10.77;;;16.40;99.90;;;;;;1033786;28;20022;-67
2021/12/16 01:55:28;;;;;;;15.48;12.90;;;16.40;99.90;;;;;;1035181;28;20032;-67
2021/12/16 01:56:13;;;;;;;11.52;10.32;;;16.40;99.90;;;;;;1035369;28;20445;-67
2021/12/16 01:56:52;;;;;;;13.90;12.18;;;16.30;99.90;;;;;;1034265;28;20092;-68
2021/12/16 01:57:34;;;;;;;12.80;11.13;;;16.30;99.90;;;;;;1034757;28;20379;-68
2021/12/16 01:58:15;;;;;;;11.48;9.50;;;16.30;99.90;;;;;;1033372;28;20022;-67
2021/12/16 01:58:46;;;;;;;12.68;11.38;;;16.30;99.90;;;;;;1031462;28;20034;-67
2021/12/16 01:59:20;;;;;;;13.50;10.75;;;16.30;99.90;;;;;;1031011;28;20096;-69
2021/12/16 02:00:05;;;;;;;14.15;11.50;;;16.30;99.90;;;;;;1035456;28;20005;-68
2021/12/16 02:00:55;;;;;;;16.38;13.20;;;16.30;99.90;;;;;;1032887;28;20026;-66
2021/12/16 02:01:32;;;;;;;14.15;11.93;;;16.30;99.90;;;;;;1033013;28;20026;-67
2021/12/16 02:02:28;;;;;;;12.63;10.98;;;16.30;99.90;;;;;;1033854;28;20153;-67
2021/12/16 02:03:04;;;;;;;13.57;11.93;;;16.30;99.90;;;;;;1035293;28;20041;-64
2021/12/16 02:03:43;;;;;;;14.60;12.38;;;16.30;99.90;;;;;;1035463;28;20508;-65
2021/12/16 02:04:27;;;;;;;15.52;12.20;;;16.30;99.90;;;;;;1034576;28;20026;-65
2021/12/16 02:05:23;;;;;;;14.75;11.70;;;16.30;99.90;;;;;;1035215;28;20030;-66
2021/12/16 02:06:07;;;;;;;10.90;9.63;;;16.20;99.90;;;;;;1034591;28;20401;-65
2021/12/16 02:07:30;;;;;;;13.73;10.30;;;16.20;99.90;;;;;;1035257;28;20018;-67
2021/12/16 02:08:31;;;;;;;10.10;8.43;;;16.30;99.90;;;;;;1034576;28;20128;-66
2021/12/16 02:09:05;;;;;;;13.15;11.00;;;16.30;99.90;;;;;;1033370;28;20014;-68
2021/12/16 02:09:41;;;;;;;13.93;10.82;;;16.30;99.90;;;;;;1033906;28;20040;-66
2021/12/16 02:10:15;;;;;;;10.25;9.10;;;16.30;99.90;;;;;;1034998;28;20028;-67
2021/12/16 02:10:56;;;;;;;10.45;8.38;;;16.30;99.90;;;;;;1035229;28;20022;-66
2021/12/16 02:12:49;;;;;;;14.82;11.95;;;16.30;99.90;;;;;;1032436;28;20153;-67
2021/12/16 02:28:38;;;;;;;9.83;7.77;;;16.40;99.90;;;;;;1034575;28;20034;-67
2021/12/16 02:29:27;;;;;;;8.65;7.75;;;16.40;99.90;;;;;;1034707;28;20114;-67
2021/12/16 02:31:18;;;;;;;9.27;7.63;;;16.40;99.90;;;;;;1027721;28;20038;-65
2021/12/16 02:31:55;;;;;;;9.02;7.57;;;16.40;99.90;;;;;;1032707;28;20060;-66
2021/12/16 02:33:18;;;;;;;9.15;8.05;;;16.40;99.90;;;;;;1035200;28;20096;-66
2021/12/16 02:34:32;;;;;;;9.50;8.23;;;16.40;99.90;;;;;;1035309;28;20113;-67
2021/12/16 02:36:01;;;;;;;10.75;9.23;;;16.40;99.90;;;;;;1034793;28;20030;-67
2021/12/16 02:36:44;;;;;;;10.65;9.55;;;16.40;99.90;;;;;;1032693;28;20665;-67
2021/12/16 02:37:20;;;;;;;10.18;8.13;;;16.40;99.90;;;;;;1034489;28;20065;-67
2021/12/16 02:37:50;;;;;;;8.50;7.50;;;16.40;99.90;;;;;;1035444;28;20067;-67
2021/12/16 02:38:22;;;;;;;7.83;7.03;;;16.40;99.90;;;;;;1035154;28;20136;-66
2021/12/16 02:39:01;;;;;;;8.85;7.95;;;16.40;99.90;;;;;;1035316;28;20046;-67
2021/12/16 02:39:33;;;;;;;8.77;7.88;;;16.40;99.90;;;;;;1034773;28;20540;-67
2021/12/16 02:40:08;;;;;;;8.20;6.95;;;16.40;99.90;;;;;;1034464;28;20560;-67
2021/12/16 02:40:40;;;;;;;8.45;7.60;;;16.40;99.90;;;;;;1034196;28;20095;-67
2021/12/16 02:41:11;;;;;;;8.88;7.75;;;16.40;99.90;;;;;;1034512;28;20133;-67
2021/12/16 02:41:45;;;;;;;8.63;7.73;;;16.40;99.90;;;;;;1035457;28;20017;-66
2021/12/16 02:42:20;;;;;;;9.35;7.95;;;16.40;99.90;;;;;;1034919;28;20464;-66
2021/12/16 02:42:57;;;;;;;8.98;8.05;;;16.40;99.90;;;;;;1035592;28;20069;-67
2021/12/16 02:48:28;;;;;;;8.30;7.50;;;16.40;99.90;;;;;;1033656;28;20037;-66
2021/12/16 02:48:52;;;;;;;9.32;7.95;;;16.40;99.90;;;;;;1034545;28;20041;-67
2021/12/16 02:49:24;;;;;;;8.70;7.77;;;16.40;99.90;;;;;;1035023;28;20030;-68
2021/12/16 02:49:55;;;;;;;8.00;7.20;;;16.40;99.90;;;;;;1035410;28;20017;-68
2021/12/16 02:50:26;;;;;;;9.57;7.68;;;16.40;99.90;;;;;;1035066;28;20117;-67
2021/12/16 02:51:18;;;;;;;8.75;7.72;;;16.40;99.90;;;;;;1034904;28;20026;-67
2021/12/16 02:51:49;;;;;;;11.98;10.77;;;16.40;99.90;;;;;;1034299;28;20034;-66
2021/12/16 02:52:22;;;;;;;8.97;8.07;;;16.40;99.90;;;;;;1033123;28;20037;-66
2021/12/16 02:52:53;;;;;;;11.32;9.98;;;16.40;99.90;;;;;;1034293;28;20617;-66
2021/12/16 02:53:24;;;;;;;8.88;7.30;;;16.40;99.90;;;;;;1034658;28;20076;-66
2021/12/16 02:53:59;;;;;;;8.90;8.00;;;16.40;99.90;;;;;;1035151;28;20026;-67
2021/12/16 02:54:29;;;;;;;9.55;8.35;;;16.40;99.90;;;;;;1034852;28;20442;-66
2021/12/16 02:55:00;;;;;;;10.57;8.73;;;16.40;99.90;;;;;;1034165;28;20014;-67
2021/12/16 02:55:31;;;;;;;10.35;8.80;;;16.40;99.90;;;;;;1034290;28;20026;-67
2021/12/16 02:56:04;;;;;;;10.97;8.23;;;16.40;99.90;;;;;;1031974;28;20014;-66
2021/12/16 02:56:35;;;;;;;9.23;8.27;;;16.40;99.90;;;;;;1035981;28;20029;-67
2021/12/16 02:57:06;;;;;;;9.07;7.78;;;16.40;99.90;;;;;;1039144;28;20017;-68
2021/12/16 02:57:46;;;;;;;8.73;7.83;;;16.40;99.90;;;;;;1039608;28;20025;-68
2021/12/16 02:58:17;;;;;;;9.52;7.55;;;16.40;99.90;;;;;;1038675;28;20048;-67
2021/12/16 02:58:52;;;;;;;7.53;6.77;;;16.40;99.90;;;;;;1036443;28;20053;-66
2021/12/16 02:59:27;;;;;;;8.27;7.43;;;16.40;99.90;;;;;;1034628;28;20036;-66
2021/12/16 02:59:57;;;;;;;7.80;7.07;;;16.40;99.90;;;;;;1033047;28;20055;-68
2021/12/16 03:00:41;;;;;;;7.87;6.80;;;16.40;99.90;;;;;;1034354;28;20036;-66
2021/12/16 03:01:25;;;;;;;8.25;7.45;;;16.40;99.90;;;;;;1035059;28;20092;-66
2021/12/16 03:02:01;;;;;;;8.52;7.00;;;16.40;99.90;;;;;;1035481;28;20019;-68
2021/12/16 03:02:31;;;;;;;9.63;8.27;;;16.40;99.90;;;;;;1034713;28;20062;-67
2021/12/16 03:03:02;;;;;;;9.50;7.53;;;16.40;99.90;;;;;;1034489;28;20053;-66
2021/12/16 03:03:35;;;;;;;9.18;8.02;;;16.40;99.90;;;;;;1033186;28;20066;-68
2021/12/16 03:04:12;;;;;;;9.60;8.60;;;16.40;99.90;;;;;;1033868;28;20099;-67
2021/12/16 03:04:46;;;;;;;12.90;10.95;;;16.40;99.90;;;;;;1035473;28;20045;-66
2021/12/16 03:05:19;;;;;;;12.20;8.55;;;16.40;99.90;;;;;;1034254;28;20017;-67
2021/12/16 03:05:50;;;;;;;8.30;7.38;;;16.40;99.90;;;;;;1035144;28;20121;-66
2021/12/16 03:06:21;;;;;;;7.57;6.87;;;16.40;99.90;;;;;;1034152;28;20037;-67
2021/12/16 03:06:55;;;;;;;8.48;7.57;;;16.40;99.90;;;;;;1034364;28;20026;-67
2021/12/16 03:07:26;;;;;;;10.05;8.50;;;16.40;99.90;;;;;;1032879;28;20042;-68
2021/12/16 03:07:57;;;;;;;8.43;7.43;;;16.40;99.90;;;;;;1034372;28;20021;-68
2021/12/16 03:08:28;;;;;;;7.68;6.65;;;16.40;99.90;;;;;;1036002;28;20184;-67
2021/12/16 03:09:00;;;;;;;8.35;7.22;;;16.40;99.90;;;;;;1035398;28;20021;-67
2021/12/16 03:10:04;;;;;;;8.02;7.22;;;16.40;99.90;;;;;;1034753;28;20452;-66
2021/12/16 03:11:17;;;;;;;12.85;9.73;;;16.40;99.90;;;;;;1034958;28;20021;-67
2021/12/16 03:12:29;;;;;;;8.88;7.43;;;16.40;99.90;;;;;;1033162;28;20042;-67
2021/12/16 03:12:56;;;;;;;7.55;6.75;;;16.40;99.90;;;;;;1033204;28;20049;-65
2021/12/16 03:13:38;;;;;;;7.90;6.72;;;16.40;99.90;;;;;;1035066;28;20033;-66
2021/12/16 03:14:48;;;;;;;10.10;7.22;;;16.40;99.90;;;;;;1034640;28;20026;-66
2021/12/16 03:16:20;;;;;;;7.60;6.38;;;16.40;99.90;;;;;;1035123;28;20026;-67
2021/12/16 03:17:38;;;;;;;14.82;10.50;;;16.40;99.90;;;;;;1034754;28;20022;-66
2021/12/16 03:19:06;;;;;;;9.13;8.00;;;16.30;99.90;;;;;;1035203;28;20030;-66
2021/12/16 03:19:58;;;;;;;9.23;8.18;;;16.30;99.90;;;;;;1035105;28;20040;-68
2021/12/16 03:20:39;;;;;;;8.13;7.32;;;16.30;99.90;;;;;;1031344;28;20023;-67
2021/12/16 03:21:18;;;;;;;7.40;6.60;;;16.30;99.90;;;;;;1030420;28;20070;-66
2021/12/16 03:21:54;;;;;;;6.60;5.90;;;16.30;99.90;;;;;;1030991;28;20025;-67
2021/12/16 03:23:36;;;;;;;7.70;6.90;;;16.30;99.90;;;;;;1032154;28;20703;-66
2021/12/16 03:25:12;;;;;;;7.93;6.82;;;16.40;99.90;;;;;;1031131;28;20026;-67
2021/12/16 03:28:18;;;;;;;7.63;6.82;;;16.40;99.90;;;;;;1035108;28;20065;-67
2021/12/16 03:29:01;;;;;;;8.68;7.57;;;16.40;99.90;;;;;;1034848;28;20092;-66
2021/12/16 03:34:12;;;;;;;8.53;6.60;;;16.40;99.90;;;;;;1034744;28;20022;-67
2021/12/16 03:37:43;;;;;;;10.60;9.15;;;16.30;99.90;;;;;;1038523;28;20171;-66
2021/12/16 03:38:13;;;;;;;7.80;7.00;;;16.30;99.90;;;;;;1036108;28;20021;-67
2021/12/16 03:38:46;;;;;;;11.67;10.47;;;16.30;99.90;;;;;;1032216;28;20017;-67
2021/12/16 03:39:17;;;;;;;10.73;9.50;;;16.30;99.90;;;;;;1033937;28;20571;-67
2021/12/16 03:40:08;;;;;;;15.07;11.73;;;16.30;99.90;;;;;;1034639;28;20010;-66
2021/12/16 03:40:40;;;;;;;9.88;8.73;;;16.30;99.90;;;;;;1034808;28;20627;-67
2021/12/16 03:41:12;;;;;;;8.40;7.53;;;16.30;99.90;;;;;;1034248;28;20449;-66
2021/12/16 03:41:44;;;;;;;8.98;7.18;;;16.30;99.90;;;;;;1034878;28;20056;-66
2021/12/16 03:42:23;;;;;;;9.38;7.25;;;16.30;99.90;;;;;;1033793;28;20022;-67
2021/12/16 03:43:02;;;;;;;10.60;8.10;;;16.30;99.90;;;;;;1033800;28;20181;-66
2021/12/16 03:43:35;;;;;;;8.20;7.40;;;16.30;99.90;;;;;;1030455;28;20077;-66
2021/12/16 03:44:11;;;;;;;7.82;6.90;;;16.30;99.90;;;;;;1030128;28;20262;-68
2021/12/16 03:46:25;;;;;;;10.30;9.25;;;16.30;99.90;;;;;;1030869;28;20097;-68
2021/12/16 03:46:41;;;;;;;7.72;6.53;;;16.30;99.90;;;;;;1033481;28;20041;-66
2021/12/16 03:47:12;;;;;;;9.40;7.43;;;16.30;99.90;;;;;;1032955;28;20017;-68
2021/12/16 03:47:47;;;;;;;7.17;6.47;;;16.30;99.90;;;;;;1034759;28;20018;-66
2021/12/16 03:48:33;;;;;;;7.80;6.70;;;16.30;99.90;;;;;;1034395;28;20081;-67
2021/12/16 03:49:06;;;;;;;9.07;8.13;;;16.30;99.90;;;;;;1032330;28;20065;-66
2021/12/16 03:49:37;;;;;;;11.00;8.52;;;16.30;99.90;;;;;;1033847;28;20020;-66
2021/12/16 03:50:12;;;;;;;7.70;6.90;;;16.30;99.90;;;;;;1032900;28;20017;-67
2021/12/16 03:50:43;;;;;;;10.13;8.80;;;16.30;99.90;;;;;;1033648;28;20013;-67
2021/12/16 03:51:28;;;;;;;9.60;7.80;;;16.30;99.90;;;;;;1031467;28;20019;-68
2021/12/16 03:52:06;;;;;;;7.93;6.90;;;16.30;99.90;;;;;;1033014;28;20081;-67
2021/12/16 03:52:37;;;;;;;11.18;9.23;;;16.30;99.90;;;;;;1034559;28;20026;-67
2021/12/16 03:53:08;;;;;;;9.37;7.70;;;16.30;99.90;;;;;;1034566;28;20018;-66
2021/12/16 03:53:42;;;;;;;9.77;8.13;;;16.30;99.90;;;;;;1034849;28;20018;-67
2021/12/16 03:54:17;;;;;;;9.63;7.13;;;16.30;99.90;;;;;;1032596;28;20018;-67
2021/12/16 03:54:51;;;;;;;12.10;9.38;;;16.30;99.90;;;;;;1034476;28;20014;-68
2021/12/16 03:55:22;;;;;;;12.35;10.27;;;16.20;99.90;;;;;;1034306;28;20034;-68
2021/12/16 03:55:53;;;;;;;9.63;8.50;;;16.20;99.90;;;;;;1034806;28;20149;-67
2021/12/16 03:56:23;;;;;;;11.27;9.07;;;16.20;99.90;;;;;;1031192;28;20026;-68
2021/12/16 03:56:56;;;;;;;10.13;7.57;;;16.20;99.90;;;;;;1030846;28;20038;-69
2021/12/16 03:57:29;;;;;;;13.00;10.48;;;16.20;99.90;;;;;;1033935;28;20164;-68
2021/12/16 03:58:00;;;;;;;8.60;7.70;;;16.20;99.90;;;;;;1032488;28;20006;-69
2021/12/16 03:58:31;;;;;;;9.13;6.97;;;16.20;99.90;;;;;;1033591;28;20022;-67
2021/12/16 03:59:04;;;;;;;11.10;9.17;;;16.20;99.90;;;;;;1034271;28;20018;-67
2021/12/16 03:59:37;;;;;;;11.10;9.88;;;16.20;99.90;;;;;;1034026;28;20484;-67
2021/12/16 04:00:18;;;;;;;11.10;9.63;;;16.20;99.90;;;;;;1030084;28;20109;-67
2021/12/16 04:00:53;;;;;;;12.27;10.18;;;16.20;99.90;;;;;;1032969;28;20045;-68
2021/12/16 04:01:27;;;;;;;8.52;7.72;;;16.20;99.90;;;;;;1034136;28;20041;-68
2021/12/16 04:02:01;;;;;;;13.00;9.80;;;16.20;99.90;;;;;;1031987;28;20584;-68
2021/12/16 04:02:33;;;;;;;11.35;8.50;;;16.20;99.90;;;;;;1034732;28;20375;-68
2021/12/16 04:03:04;;;;;;;7.95;6.82;;;16.20;99.90;;;;;;1033989;28;20014;-69
2021/12/16 04:03:35;;;;;;;11.40;9.60;;;16.20;99.90;;;;;;1034801;28;20010;-67
2021/12/16 04:04:06;;;;;;;8.37;7.40;;;16.20;99.90;;;;;;1038171;28;20013;-68
2021/12/16 04:04:37;;;;;;;11.00;8.57;;;16.20;99.90;;;;;;1032974;28;20014;-68
2021/12/16 04:05:10;;;;;;;9.75;8.75;;;16.20;99.90;;;;;;1029686;28;20318;-69
2021/12/16 04:05:43;;;;;;;7.90;7.10;;;16.20;99.90;;;;;;1028477;28;20018;-69
2021/12/16 04:06:14;;;;;;;10.77;9.65;;;16.10;99.90;;;;;;1033773;28;20009;-69
2021/12/16 04:06:45;;;;;;;11.20;7.70;;;16.10;99.90;;;;;;1034078;28;20053;-67
2021/12/16 04:07:15;;;;;;;10.83;9.17;;;16.20;99.90;;;;;;1032920;28;20026;-68
2021/12/16 04:07:48;;;;;;;9.90;8.40;;;16.20;99.90;;;;;;1034549;28;20497;-67
2021/12/16 04:08:19;;;;;;;11.52;9.88;;;16.20;99.90;;;;;;1030006;28;20014;-68
2021/12/16 04:08:52;;;;;;;11.30;9.53;;;16.10;99.90;;;;;;1030138;28;20136;-68
2021/12/16 04:09:23;;;;;;;11.10;9.98;;;16.10;99.90;;;;;;1030178;28;20157;-69
2021/12/16 04:09:54;;;;;;;10.60;8.57;;;16.10;99.90;;;;;;1033508;28;20032;-67
2021/12/16 04:10:34;;;;;;;11.30;8.10;;;16.10;99.90;;;;;;1036110;28;20088;-68
2021/12/16 04:11:19;;;;;;;11.50;9.10;;;16.10;99.90;;;;;;1035937;28;20722;-67
2021/12/16 04:12:03;;;;;;;9.35;8.23;;;16.10;99.90;;;;;;1030775;28;20844;-67
2021/12/16 04:12:34;;;;;;;11.98;8.75;;;16.10;99.90;;;;;;1029709;28;20118;-67
2021/12/16 04:13:07;;;;;;;10.00;7.63;;;16.10;99.90;;;;;;1033638;28;20022;-68
2021/12/16 04:13:53;;;;;;;12.75;9.95;;;16.10;99.90;;;;;;1034437;28;20665;-68
2021/12/16 04:14:23;;;;;;;12.00;9.98;;;16.10;99.90;;;;;;1033051;28;20120;-68
2021/12/16 04:14:57;;;;;;;8.83;7.70;;;16.10;99.90;;;;;;1034798;28;20010;-69
2021/12/16 04:15:28;;;;;;;12.23;9.48;;;16.10;99.90;;;;;;1034252;28;20036;-67
2021/12/16 04:15:59;;;;;;;10.70;9.23;;;16.10;99.90;;;;;;1034557;28;20025;-68
2021/12/16 04:16:35;;;;;;;14.63;11.23;;;16.10;99.90;;;;;;1033966;28;20022;-68
2021/12/16 04:17:08;;;;;;;9.68;8.65;;;16.10;99.90;;;;;;1033660;28;20014;-67
2021/12/16 04:17:38;;;;;;;9.73;8.52;;;16.10;99.90;;;;;;1033578;28;20014;-68
2021/12/16 04:18:09;;;;;;;7.53;6.73;;;16.10;99.90;;;;;;1034545;28;20029;-68
2021/12/16 04:18:40;;;;;;;10.30;8.60;;;16.10;99.90;;;;;;1034987;28;20026;-67
2021/12/16 04:19:14;;;;;;;8.33;6.87;;;16.10;99.90;;;;;;1034617;28;20021;-67
2021/12/16 04:19:45;;;;;;;10.07;7.90;;;16.10;99.90;;;;;;1034462;28;20029;-67
2021/12/16 04:20:17;;;;;;;10.05;8.70;;;16.10;99.90;;;;;;1033768;28;20025;-68
2021/12/16 04:20:48;;;;;;;9.45;8.43;;;16.10;99.90;;;;;;1034432;28;20044;-67
2021/12/16 04:21:19;;;;;;;9.63;8.70;;;16.10;99.90;;;;;;1032543;28;20040;-69
2021/12/16 04:22:01;;;;;;;11.68;10.45;;;16.10;99.90;;;;;;1034054;28;20045;-68
2021/12/16 04:22:42;;;;;;;10.70;9.27;;;16.10;99.90;;;;;;1037363;28;20042;-67
2021/12/16 04:23:13;;;;;;;11.15;9.80;;;16.10;99.90;;;;;;1034290;28;20026;-67
2021/12/16 04:23:43;;;;;;;11.88;10.48;;;16.10;99.90;;;;;;1034236;28;20026;-67
2021/12/16 04:24:15;;;;;;;9.93;8.60;;;16.10;99.90;;;;;;1032661;28;20025;-68
2021/12/16 04:24:48;;;;;;;9.30;7.35;;;16.10;99.90;;;;;;1034593;28;20021;-68
2021/12/16 04:25:30;;;;;;;9.10;8.20;;;16.10;99.90;;;;;;1032043;28;21510;-67
2021/12/16 04:26:00;;;;;;;10.75;9.65;;;16.10;99.90;;;;;;1034226;28;20025;-67
2021/12/16 04:26:32;;;;;;;10.43;9.43;;;16.10;99.90;;;;;;1034704;28;20049;-67
2021/12/16 04:27:05;;;;;;;13.20;10.77;;;16.10;99.90;;;;;;1034415;28;20025;-69
2021/12/16 04:27:36;;;;;;;9.70;7.47;;;16.10;99.90;;;;;;1034815;28;20065;-66
2021/12/16 04:28:14;;;;;;;8.82;7.90;;;16.10;99.90;;;;;;1034153;28;20107;-67
2021/12/16 04:28:44;;;;;;;9.50;7.47;;;16.10;99.90;;;;;;1034456;28;20418;-67
2021/12/16 04:29:17;;;;;;;10.40;9.17;;;16.10;99.90;;;;;;1031832;28;20370;-68
2021/12/16 04:29:48;;;;;;;9.45;8.20;;;16.10;99.90;;;;;;1034980;28;20030;-67
2021/12/16 04:30:20;;;;;;;8.37;7.47;;;16.10;99.90;;;;;;1034445;28;20025;-67
2021/12/16 04:30:52;;;;;;;10.48;9.27;;;16.10;99.90;;;;;;1034971;28;20022;-65
2021/12/16 04:31:23;;;;;;;10.65;8.13;;;16.10;99.90;;;;;;1034618;28;20049;-67
2021/12/16 04:31:56;;;;;;;11.10;8.20;;;16.10;99.90;;;;;;1033535;28;20014;-66
2021/12/16 04:32:26;;;;;;;10.63;9.20;;;16.10;99.90;;;;;;1033418;28;20107;-67
2021/12/16 04:32:58;;;;;;;10.03;8.60;;;16.10;99.90;;;;;;1032603;28;20084;-69
2021/12/16 04:33:29;;;;;;;10.70;8.90;;;16.10;99.90;;;;;;1033561;28;20034;-67
2021/12/16 04:34:00;;;;;;;12.70;10.50;;;16.10;99.90;;;;;;1034423;28;20026;-66
2021/12/16 04:34:30;;;;;;;10.67;9.57;;;16.10;99.90;;;;;;1030518;28;20018;-66
2021/12/16 04:35:01;;;;;;;11.40;8.90;;;16.10;99.90;;;;;;1030080;28;20053;-66
2021/12/16 04:35:33;;;;;;;10.33;8.83;;;16.10;99.90;;;;;;1030497;28;20494;-66
2021/12/16 04:36:04;;;;;;;11.00;8.77;;;16.10;99.90;;;;;;1032828;28;20030;-67
2021/12/16 04:36:35;;;;;;;9.17;8.27;;;16.10;99.90;;;;;;1034284;28;20022;-67
2021/12/16 04:37:06;;;;;;;9.40;8.48;;;16.10;99.90;;;;;;1031623;28;21415;-66
2021/12/16 04:37:37;;;;;;;11.10;10.00;;;16.10;99.90;;;;;;1035152;28;20488;-66
2021/12/16 04:38:10;;;;;;;9.52;8.48;;;16.00;99.90;;;;;;1034502;28;20365;-66
2021/12/16 04:38:43;;;;;;;8.60;7.28;;;16.00;99.90;;;;;;1034803;28;20036;-67
2021/12/16 04:39:17;;;;;;;9.60;8.50;;;16.00;99.90;;;;;;1034388;28;20053;-65
2021/12/16 04:39:48;;;;;;;10.25;8.18;;;16.10;99.90;;;;;;1034074;28;20052;-67
2021/12/16 04:40:19;;;;;;;9.40;8.33;;;16.10;99.90;;;;;;1033636;28;20028;-66
2021/12/16 04:40:50;;;;;;;8.85;7.30;;;16.10;99.90;;;;;;1031766;28;20176;-68
2021/12/16 04:41:21;;;;;;;8.57;7.70;;;16.10;99.90;;;;;;1035241;28;20247;-66
2021/12/16 04:41:54;;;;;;;7.20;6.45;;;16.10;99.90;;;;;;1038777;28;20386;-66
2021/12/16 04:42:26;;;;;;;7.75;6.95;;;16.10;99.90;;;;;;1037711;28;20044;-66
2021/12/16 04:43:01;;;;;;;7.60;6.80;;;16.10;99.90;;;;;;1030418;28;20481;-68
2021/12/16 04:43:39;;;;;;;7.75;5.95;;;16.10;99.90;;;;;;1030115;28;20470;-67
2021/12/16 04:44:14;;;;;;;11.10;9.70;;;16.10;99.90;;;;;;1030838;28;20032;-66
2021/12/16 04:44:46;;;;;;;10.57;8.68;;;16.10;99.90;;;;;;1034782;28;20441;-69
2021/12/16 04:45:19;;;;;;;11.32;9.15;;;16.10;99.90;;;;;;1037800;28;20022;-66
2021/12/16 04:45:50;;;;;;;8.02;7.20;;;16.10;99.90;;;;;;1034860;28;20468;-66
2021/12/16 04:46:24;;;;;;;9.82;8.05;;;16.10;99.90;;;;;;1033965;28;20456;-67
2021/12/16 04:46:56;;;;;;;11.25;10.02;;;16.10;99.90;;;;;;1034705;28;20025;-67
2021/12/16 04:47:29;;;;;;;11.68;8.25;;;16.10;99.90;;;;;;1029140;28;20058;-66
2021/12/16 04:48:00;;;;;;;8.40;7.25;;;16.10;99.90;;;;;;1034356;28;20113;-67
2021/12/16 04:48:31;;;;;;;10.25;8.55;;;16.10;99.90;;;;;;1028162;28;20545;-68
2021/12/16 04:49:03;;;;;;;10.60;9.20;;;16.10;99.90;;;;;;1029282;28;20034;-66
2021/12/16 04:49:34;;;;;;;11.02;9.57;;;16.10;99.90;;;;;;1037895;28;20681;-68
2021/12/16 04:50:07;;;;;;;8.52;6.93;;;16.10;99.90;;;;;;1034511;28;20469;-67
2021/12/16 04:50:38;;;;;;;8.73;7.07;;;16.10;99.90;;;;;;1038638;28;20018;-68
2021/12/16 04:51:09;;;;;;;8.57;7.77;;;16.10;99.90;;;;;;1038255;28;20013;-67
2021/12/16 04:51:44;;;;;;;7.57;6.88;;;16.10;99.90;;;;;;1035407;28;20032;-67
2021/12/16 04:52:17;;;;;;;10.18;8.88;;;16.10;99.90;;;;;;1034307;28;20103;-67
2021/12/16 04:52:48;;;;;;;8.90;7.53;;;16.10;99.90;;;;;;1034039;28;20028;-67
2021/12/16 04:53:19;;;;;;;7.88;7.07;;;16.10;99.90;;;;;;1034877;28;20021;-67
2021/12/16 04:53:50;;;;;;;8.33;7.27;;;16.10;99.90;;;;;;1033043;28;20101;-66
2021/12/16 04:54:23;;;;;;;9.13;8.20;;;16.10;99.90;;;;;;1030454;28;20038;-66
2021/12/16 04:54:54;;;;;;;10.05;9.05;;;16.10;99.90;;;;;;1031018;28;20112;-66
2021/12/16 04:55:24;;;;;;;8.90;7.73;;;16.10;99.90;;;;;;1032519;28;20044;-67
2021/12/16 04:55:55;;;;;;;8.77;7.87;;;16.10;99.90;;;;;;1034179;28;20145;-67
2021/12/16 04:56:27;;;;;;;10.33;9.20;;;16.10;99.90;;;;;;1031311;28;20044;-68
2021/12/16 04:56:59;;;;;;;9.98;8.85;;;16.10;99.90;;;;;;1034258;28;20041;-66
2021/12/16 04:57:30;;;;;;;8.25;7.45;;;16.10;99.90;;;;;;1030550;28;20152;-66
2021/12/16 04:58:00;;;;;;;9.33;7.47;;;16.10;99.90;;;;;;1034398;28;20030;-67
2021/12/16 04:58:32;;;;;;;7.33;6.63;;;16.10;99.90;;;;;;1034350;28;20116;-66
2021/12/16 04:59:08;;;;;;;8.60;7.70;;;16.10;99.90;;;;;;1033546;28;20021;-66
2021/12/16 04:59:38;;;;;;;8.30;7.43;;;16.10;99.90;;;;;;1034358;28;20389;-66
2021/12/16 05:00:12;;;;;;;9.13;7.87;;;16.10;99.90;;;;;;1033071;28;20530;-67
2021/12/16 05:00:43;;;;;;;9.50;8.52;;;16.10;99.90;;;;;;1034575;28;20026;-66
2021/12/16 05:01:14;;;;;;;9.40;8.40;;;16.00;99.90;;;;;;1034130;28;20363;-66
2021/12/16 05:01:49;;;;;;;9.95;8.95;;;16.10;99.90;;;;;;1034988;28;20034;-66
2021/12/16 05:02:22;;;;;;;8.43;7.55;;;16.00;99.90;;;;;;1034537;28;20121;-66
2021/12/16 05:02:54;;;;;;;7.03;6.25;;;16.00;99.90;;;;;;1034911;28;20014;-67
2021/12/16 05:03:25;;;;;;;6.90;6.20;;;16.10;99.90;;;;;;1033661;28;20030;-66
2021/12/16 05:03:56;;;;;;;8.15;7.35;;;16.00;99.90;;;;;;1034488;28;20033;-67
2021/12/16 05:04:27;;;;;;;6.70;5.57;;;16.00;99.90;;;;;;1032003;28;20561;-66
2021/12/16 05:04:58;;;;;;;7.53;6.63;;;16.00;99.90;;;;;;1034418;28;20466;-68